Time;durP1;ratioP1;P1;durP2;ratioP2;P2;SDS_P1;SDS_P2;PMS_P1;PMS_P2;Temp;Humidity;BMP_temperature;BMP_pressure;BME280_temperature;BME280_humidity;BME280_pressure;Samples;Min_cycle;Max_cycle;Signal;HPM_P1;HPM_P2
2023/06/16 00:00:43;;;;;;;7.65;5.85;;;;;;;;;;5135473;27;20035;-75
2023/06/16 00:03:09;;;;;;;9.32;6.25;;;;;;;;;;5135600;27;20398;-76
2023/06/16 00:05:35;;;;;;;8.57;6.03;;;;;;;;;;5154222;27;20039;-75
2023/06/16 00:08:03;;;;;;;9.63;6.30;;;;;;;;;;5153258;27;20437;-75
2023/06/16 00:10:29;;;;;;;8.90;6.20;;;;;;;;;;5116283;27;20046;-76
2023/06/16 00:12:56;;;;;;;10.40;6.70;;;;;;;;;;5153829;27;20047;-75
2023/06/16 00:15:23;;;;;;;11.55;6.50;;;;;;;;;;5154108;27;20047;-75
2023/06/16 00:17:50;;;;;;;9.90;6.60;;;;;;;;;;5135788;27;20117;-75
2023/06/16 00:20:21;;;;;;;9.77;6.20;;;;;;;;;;5154108;27;20399;-76
2023/06/16 00:22:50;;;;;;;9.02;6.38;;;;;;;;;;5152779;27;20050;-75
2023/06/16 00:25:19;;;;;;;10.43;6.63;;;;;;;;;;5152224;27;20078;-76
2023/06/16 00:27:46;;;;;;;9.43;6.30;;;;;;;;;;5153267;27;20039;-75
2023/06/16 00:30:12;;;;;;;6.50;5.72;;;;;;;;;;5153784;27;20049;-75
2023/06/16 00:32:38;;;;;;;7.75;6.15;;;;;;;;;;5154032;27;20091;-76
2023/06/16 00:35:04;;;;;;;9.93;6.30;;;;;;;;;;5153554;27;20500;-75
2023/06/16 00:37:31;;;;;;;8.57;6.10;;;;;;;;;;5153123;27;20039;-75
2023/06/16 00:39:57;;;;;;;9.55;5.80;;;;;;;;;;5152701;27;20065;-76
2023/06/16 00:42:23;;;;;;;7.20;5.82;;;;;;;;;;5153902;27;20062;-75
2023/06/16 00:44:49;;;;;;;7.30;6.15;;;;;;;;;;5151726;27;20081;-75
2023/06/16 00:47:15;;;;;;;6.75;5.80;;;;;;;;;;5134718;27;20045;-75
2023/06/16 00:49:41;;;;;;;7.38;5.57;;;;;;;;;;5135274;27;20039;-75
2023/06/16 00:52:10;;;;;;;9.02;6.03;;;;;;;;;;5154058;27;20455;-75
2023/06/16 00:54:36;;;;;;;7.10;5.80;;;;;;;;;;5153493;27;20050;-75
2023/06/16 00:57:02;;;;;;;7.72;5.40;;;;;;;;;;5153921;27;20122;-75
2023/06/16 00:59:28;;;;;;;7.93;5.80;;;;;;;;;;5153495;27;20051;-75
2023/06/16 01:01:58;;;;;;;6.28;5.03;;;;;;;;;;5135329;27;20043;-75
2023/06/16 01:04:24;;;;;;;10.20;5.45;;;;;;;;;;5153620;27;20067;-75
2023/06/16 01:06:59;;;;;;;8.60;6.28;;;;;;;;;;5153838;27;20062;-75
2023/06/16 01:09:42;;;;;;;7.28;5.90;;;;;;;;;;5152399;27;20499;-75
2023/06/16 01:12:11;;;;;;;9.13;5.43;;;;;;;;;;5153627;27;20486;-75
2023/06/16 01:14:57;;;;;;;6.55;5.45;;;;;;;;;;5153485;27;20046;-75
2023/06/16 01:17:24;;;;;;;7.95;5.78;;;;;;;;;;5153786;27;20386;-76
2023/06/16 01:19:57;;;;;;;8.23;5.75;;;;;;;;;;5134586;27;20039;-76
2023/06/16 01:22:23;;;;;;;9.05;5.50;;;;;;;;;;5153662;27;20436;-76
2023/06/16 01:24:53;;;;;;;9.80;5.78;;;;;;;;;;5153077;27;20053;-75
2023/06/16 01:27:21;;;;;;;7.68;5.78;;;;;;;;;;5135045;27;20043;-75
2023/06/16 01:29:48;;;;;;;9.32;6.35;;;;;;;;;;5134957;27;20039;-75
2023/06/16 01:32:16;;;;;;;9.90;6.20;;;;;;;;;;5153670;27;20118;-75
2023/06/16 01:34:43;;;;;;;7.80;5.55;;;;;;;;;;5134977;27;20070;-75
2023/06/16 01:37:10;;;;;;;7.88;6.13;;;;;;;;;;5134759;27;20046;-76
2023/06/16 01:39:37;;;;;;;8.30;5.68;;;;;;;;;;5154553;27;20050;-75
2023/06/16 01:42:03;;;;;;;8.25;6.30;;;;;;;;;;5155166;27;20045;-75
2023/06/16 01:44:31;;;;;;;9.70;6.43;;;;;;;;;;5155773;27;20045;-75
2023/06/16 01:46:57;;;;;;;9.55;6.68;;;;;;;;;;5156968;27;20042;-76
2023/06/16 01:49:24;;;;;;;11.65;7.20;;;;;;;;;;5156694;27;20387;-75
2023/06/16 01:51:50;;;;;;;12.23;6.80;;;;;;;;;;5138355;27;20050;-76
2023/06/16 01:54:16;;;;;;;9.02;7.20;;;;;;;;;;5156470;27;20588;-76
2023/06/16 01:56:42;;;;;;;10.07;7.30;;;;;;;;;;5156574;27;20042;-76
2023/06/16 01:59:08;;;;;;;11.35;7.78;;;;;;;;;;5156562;27;20046;-76
2023/06/16 02:01:38;;;;;;;10.07;8.05;;;;;;;;;;5156417;27;20491;-76
2023/06/16 02:04:04;;;;;;;11.07;7.45;;;;;;;;;;5121300;27;20042;-76
2023/06/16 02:06:50;;;;;;;10.30;8.02;;;;;;;;;;5137827;27;20042;-76
2023/06/16 02:09:17;;;;;;;10.60;8.13;;;;;;;;;;5156132;27;20065;-74
2023/06/16 02:11:43;;;;;;;10.93;8.57;;;;;;;;;;5137974;27;20052;-74
2023/06/16 02:14:10;;;;;;;10.60;8.05;;;;;;;;;;5155948;27;20047;-74
2023/06/16 02:16:42;;;;;;;9.65;8.65;;;;;;;;;;5134574;27;20043;-74
2023/06/16 02:19:09;;;;;;;10.85;8.80;;;;;;;;;;5137148;27;20074;-75
2023/06/16 02:21:36;;;;;;;10.10;8.48;;;;;;;;;;5155730;27;20054;-75
2023/06/16 02:24:03;;;;;;;11.65;8.75;;;;;;;;;;5155606;27;20395;-75
2023/06/16 02:26:29;;;;;;;12.65;9.50;;;;;;;;;;5136332;27;20372;-75
2023/06/16 02:28:56;;;;;;;14.57;10.25;;;;;;;;;;5137394;27;20510;-75
2023/06/16 02:31:22;;;;;;;11.98;9.95;;;;;;;;;;5119029;27;20194;-76
2023/06/16 02:33:51;;;;;;;12.52;9.75;;;;;;;;;;5147378;27;20169;-75
2023/06/16 02:36:18;;;;;;;11.77;10.38;;;;;;;;;;5137466;27;20149;-75
2023/06/16 02:38:47;;;;;;;11.55;10.35;;;;;;;;;;5137440;27;20390;-76
2023/06/16 02:41:14;;;;;;;13.10;10.52;;;;;;;;;;5155932;27;20082;-76
2023/06/16 02:43:40;;;;;;;13.88;10.68;;;;;;;;;;5136722;27;20054;-76
2023/06/16 02:46:07;;;;;;;12.40;10.80;;;;;;;;;;5117926;27;20031;-76
2023/06/16 02:48:33;;;;;;;13.77;11.38;;;;;;;;;;5136656;27;20107;-75
2023/06/16 02:50:59;;;;;;;13.80;11.85;;;;;;;;;;5155099;27;20035;-75
2023/06/16 02:53:25;;;;;;;13.05;11.30;;;;;;;;;;5155905;27;20042;-76
2023/06/16 02:55:52;;;;;;;13.93;11.95;;;;;;;;;;5136857;27;20046;-75
2023/06/16 02:58:18;;;;;;;15.32;11.77;;;;;;;;;;5155455;27;20312;-76
2023/06/16 03:00:45;;;;;;;13.45;11.90;;;;;;;;;;5136610;27;20175;-75
2023/06/16 03:03:11;;;;;;;15.80;12.63;;;;;;;;;;5155166;27;20046;-76
2023/06/16 03:05:37;;;;;;;17.63;12.57;;;;;;;;;;5155202;27;20589;-76
2023/06/16 03:08:04;;;;;;;14.85;12.15;;;;;;;;;;5155357;27;20059;-76
2023/06/16 03:10:31;;;;;;;14.07;12.52;;;;;;;;;;5154584;27;20503;-75
2023/06/16 03:12:57;;;;;;;14.80;12.13;;;;;;;;;;5155213;27;20407;-75
2023/06/16 03:15:23;;;;;;;15.07;12.82;;;;;;;;;;5155053;27;20050;-75
2023/06/16 03:17:49;;;;;;;16.98;13.30;;;;;;;;;;5152920;27;20555;-76
2023/06/16 03:20:15;;;;;;;17.15;13.43;;;;;;;;;;5118833;27;20038;-76
2023/06/16 03:22:41;;;;;;;16.02;13.45;;;;;;;;;;5154865;27;20039;-76
2023/06/16 03:25:08;;;;;;;15.75;13.07;;;;;;;;;;5154848;27;20650;-76
2023/06/16 03:27:34;;;;;;;15.75;13.05;;;;;;;;;;5155145;27;20517;-76
2023/06/16 03:30:00;;;;;;;17.38;13.35;;;;;;;;;;5154734;27;20039;-76
2023/06/16 03:32:27;;;;;;;15.05;13.25;;;;;;;;;;5155019;27;20062;-76
2023/06/16 03:34:55;;;;;;;15.38;13.20;;;;;;;;;;5154440;27;20046;-76
2023/06/16 03:37:21;;;;;;;17.58;14.13;;;;;;;;;;5155128;27;20047;-76
2023/06/16 03:39:47;;;;;;;15.88;13.95;;;;;;;;;;5136350;27;20084;-76
2023/06/16 03:42:13;;;;;;;16.38;14.07;;;;;;;;;;5154773;27;20042;-76
2023/06/16 03:44:39;;;;;;;16.92;13.57;;;;;;;;;;5154207;27;20050;-76
2023/06/16 03:47:06;;;;;;;16.48;13.40;;;;;;;;;;5152434;27;20035;-76
2023/06/16 03:49:32;;;;;;;16.15;13.57;;;;;;;;;;5154421;27;20050;-76
2023/06/16 03:51:58;;;;;;;21.45;14.20;;;;;;;;;;5135757;27;20167;-76
2023/06/16 03:54:26;;;;;;;17.00;14.80;;;;;;;;;;5135515;27;20050;-77
2023/06/16 03:56:52;;;;;;;18.88;14.00;;;;;;;;;;5153540;27;20043;-76
2023/06/16 03:59:18;;;;;;;16.15;13.52;;;;;;;;;;5154009;27;20491;-76
2023/06/16 04:01:46;;;;;;;16.98;14.50;;;;;;;;;;5135223;27;20441;-76
2023/06/16 04:04:12;;;;;;;17.15;14.90;;;;;;;;;;5154173;27;20046;-76
2023/06/16 04:06:40;;;;;;;17.60;14.57;;;;;;;;;;5118396;27;20058;-75
2023/06/16 04:09:06;;;;;;;16.42;14.52;;;;;;;;;;5154081;27;20042;-76
2023/06/16 04:11:33;;;;;;;16.75;14.88;;;;;;;;;;5154174;27;20055;-75
2023/06/16 04:13:59;;;;;;;17.23;14.75;;;;;;;;;;5154262;27;20038;-75
2023/06/16 04:16:25;;;;;;;19.42;15.55;;;;;;;;;;5154209;27;20071;-75
2023/06/16 04:18:52;;;;;;;18.10;14.82;;;;;;;;;;5135413;27;20050;-75
2023/06/16 04:21:18;;;;;;;18.35;15.75;;;;;;;;;;5135294;27;20184;-75
2023/06/16 04:23:44;;;;;;;21.75;15.88;;;;;;;;;;5153884;27;20113;-75
2023/06/16 04:26:10;;;;;;;19.70;16.55;;;;;;;;;;5154239;27;20494;-75
2023/06/16 04:28:44;;;;;;;19.50;17.30;;;;;;;;;;5154088;27;20035;-75
2023/06/16 04:31:12;;;;;;;20.15;17.95;;;;;;;;;;5153754;27;20046;-75
2023/06/16 04:33:41;;;;;;;22.55;18.25;;;;;;;;;;5117899;27;20062;-75
2023/06/16 04:36:08;;;;;;;21.23;18.75;;;;;;;;;;5135833;27;20418;-76
2023/06/16 04:38:34;;;;;;;22.15;19.65;;;;;;;;;;5154030;27;20045;-75
2023/06/16 04:41:00;;;;;;;24.80;21.02;;;;;;;;;;5135280;27;20087;-75
2023/06/16 04:43:26;;;;;;;22.98;20.33;;;;;;;;;;5135211;27;20051;-75
2023/06/16 04:45:52;;;;;;;22.40;19.92;;;;;;;;;;5135311;27;20052;-75
2023/06/16 04:48:19;;;;;;;24.73;19.85;;;;;;;;;;5153718;27;20034;-76
2023/06/16 04:50:46;;;;;;;25.88;20.88;;;;;;;;;;5152146;27;20514;-75
2023/06/16 04:53:12;;;;;;;21.95;19.27;;;;;;;;;;5135249;27;20046;-75
2023/06/16 04:55:38;;;;;;;22.58;20.02;;;;;;;;;;5153796;27;20491;-75
2023/06/16 04:58:04;;;;;;;23.90;20.02;;;;;;;;;;5153674;27;20047;-75
2023/06/16 05:00:30;;;;;;;24.45;18.67;;;;;;;;;;5134804;27;20127;-75
2023/06/16 05:02:57;;;;;;;21.10;18.60;;;;;;;;;;5153792;27;20051;-75
2023/06/16 05:05:23;;;;;;;20.05;17.90;;;;;;;;;;5134073;27;20122;-75
2023/06/16 05:07:49;;;;;;;21.63;16.90;;;;;;;;;;5153341;27;20231;-75
2023/06/16 05:10:15;;;;;;;19.88;16.92;;;;;;;;;;5153536;27;20038;-76
2023/06/16 05:12:41;;;;;;;18.52;16.52;;;;;;;;;;5153967;27;20039;-76
2023/06/16 05:15:07;;;;;;;21.52;16.30;;;;;;;;;;5157529;27;20125;-76
2023/06/16 05:17:34;;;;;;;18.48;16.10;;;;;;;;;;5158004;27;20500;-76
2023/06/16 05:20:00;;;;;;;18.75;14.27;;;;;;;;;;5157202;27;20066;-75
2023/06/16 05:22:26;;;;;;;19.08;14.45;;;;;;;;;;5139377;27;20437;-75
2023/06/16 05:24:57;;;;;;;18.75;14.25;;;;;;;;;;5156726;27;20126;-75
2023/06/16 05:27:24;;;;;;;16.48;13.68;;;;;;;;;;5157798;27;20039;-75
2023/06/16 05:29:51;;;;;;;20.17;14.60;;;;;;;;;;5157026;27;20053;-76
2023/06/16 05:32:19;;;;;;;20.42;14.07;;;;;;;;;;5157661;27;20070;-75
2023/06/16 05:34:46;;;;;;;16.77;13.98;;;;;;;;;;5156845;27;20393;-76
2023/06/16 05:37:15;;;;;;;16.05;13.40;;;;;;;;;;5138761;27;20394;-76
2023/06/16 05:39:45;;;;;;;22.65;14.05;;;;;;;;;;5156811;27;20050;-75
2023/06/16 05:42:14;;;;;;;16.63;13.13;;;;;;;;;;5156915;27;20043;-76
2023/06/16 05:44:41;;;;;;;18.15;12.90;;;;;;;;;;5156556;27;20066;-76
2023/06/16 05:47:07;;;;;;;15.18;12.02;;;;;;;;;;5155726;27;20091;-76
2023/06/16 05:49:33;;;;;;;14.85;11.60;;;;;;;;;;5156056;27;20455;-76
2023/06/16 05:52:01;;;;;;;16.55;12.25;;;;;;;;;;5137650;27;20050;-76
2023/06/16 05:54:28;;;;;;;14.35;11.50;;;;;;;;;;5156505;27;20178;-76
2023/06/16 05:56:56;;;;;;;13.82;11.05;;;;;;;;;;5156576;27;20078;-77
2023/06/16 05:59:22;;;;;;;14.95;11.00;;;;;;;;;;5138004;27;20483;-76
2023/06/16 06:01:51;;;;;;;16.27;11.23;;;;;;;;;;5156289;27;20045;-76
2023/06/16 06:04:20;;;;;;;14.52;10.60;;;;;;;;;;5156289;27;20038;-76
2023/06/16 06:06:46;;;;;;;13.68;10.23;;;;;;;;;;5155916;27;20100;-77
2023/06/16 06:09:12;;;;;;;12.93;9.88;;;;;;;;;;5154503;27;20070;-76
2023/06/16 06:11:39;;;;;;;12.95;10.93;;;;;;;;;;5154117;27;20051;-77
2023/06/16 06:14:05;;;;;;;13.38;10.57;;;;;;;;;;5136076;27;20103;-77
2023/06/16 06:16:32;;;;;;;14.02;10.00;;;;;;;;;;5155658;27;20079;-77
2023/06/16 06:18:58;;;;;;;14.48;10.43;;;;;;;;;;5156021;27;20119;-77
2023/06/16 06:21:24;;;;;;;16.70;9.70;;;;;;;;;;5155493;27;20443;-77
2023/06/16 06:23:51;;;;;;;14.48;10.20;;;;;;;;;;5154654;27;20092;-75
2023/06/16 06:26:18;;;;;;;13.90;9.40;;;;;;;;;;5155605;27;20054;-75
2023/06/16 06:28:44;;;;;;;13.18;8.82;;;;;;;;;;5155639;27;20034;-75
2023/06/16 06:31:10;;;;;;;11.90;9.18;;;;;;;;;;5137158;27;20042;-76
2023/06/16 06:33:36;;;;;;;12.50;9.25;;;;;;;;;;5136970;27;20038;-76
2023/06/16 06:36:02;;;;;;;13.85;8.57;;;;;;;;;;5156072;27;20425;-76
2023/06/16 06:38:28;;;;;;;11.50;8.88;;;;;;;;;;5155636;27;20038;-75
2023/06/16 06:40:55;;;;;;;11.82;9.13;;;;;;;;;;5136484;27;20126;-75
2023/06/16 06:43:21;;;;;;;16.15;9.43;;;;;;;;;;5119013;27;20042;-76
2023/06/16 06:45:48;;;;;;;13.43;9.35;;;;;;;;;;5137235;27;20094;-76
2023/06/16 06:48:14;;;;;;;14.63;10.77;;;;;;;;;;5155643;27;20039;-76
2023/06/16 06:50:40;;;;;;;12.20;9.48;;;;;;;;;;5136826;27;20057;-76
2023/06/16 06:53:06;;;;;;;12.32;9.07;;;;;;;;;;5136824;27;20061;-76
2023/06/16 06:55:32;;;;;;;14.40;9.90;;;;;;;;;;5155288;27;20046;-76
2023/06/16 06:57:58;;;;;;;12.93;9.30;;;;;;;;;;5136828;27;20066;-75
2023/06/16 07:00:24;;;;;;;13.75;9.20;;;;;;;;;;5155259;27;20475;-75
2023/06/16 07:02:51;;;;;;;12.77;7.97;;;;;;;;;;5155341;27;20046;-75
2023/06/16 07:05:17;;;;;;;9.18;7.00;;;;;;;;;;5155023;27;20175;-75
2023/06/16 07:07:43;;;;;;;10.43;7.82;;;;;;;;;;5155102;27;20067;-75
2023/06/16 07:10:10;;;;;;;10.13;7.57;;;;;;;;;;5154994;27;20047;-75
2023/06/16 07:12:36;;;;;;;10.18;7.40;;;;;;;;;;5155525;27;20043;-75
2023/06/16 07:15:03;;;;;;;10.45;8.52;;;;;;;;;;5154908;27;20049;-75
2023/06/16 07:17:34;;;;;;;14.35;7.78;;;;;;;;;;5136903;27;20039;-75
2023/06/16 07:20:00;;;;;;;11.57;8.10;;;;;;;;;;5154781;27;20043;-75
2023/06/16 07:22:26;;;;;;;10.80;7.70;;;;;;;;;;5155375;27;20047;-76
2023/06/16 07:24:52;;;;;;;8.27;7.13;;;;;;;;;;5154672;27;20034;-76
2023/06/16 07:27:18;;;;;;;9.75;7.00;;;;;;;;;;5136369;27;20093;-76
2023/06/16 07:29:45;;;;;;;8.43;6.82;;;;;;;;;;5154523;27;20113;-76
2023/06/16 07:32:11;;;;;;;7.90;6.75;;;;;;;;;;5154739;27;20047;-76
2023/06/16 07:34:39;;;;;;;11.68;6.57;;;;;;;;;;5154455;27;20050;-76
2023/06/16 07:37:05;;;;;;;9.10;6.30;;;;;;;;;;5135144;27;20082;-76
2023/06/16 07:39:31;;;;;;;9.05;6.93;;;;;;;;;;5154560;27;20050;-76
2023/06/16 07:41:57;;;;;;;9.00;6.68;;;;;;;;;;5136253;27;20057;-76
2023/06/16 07:44:23;;;;;;;9.43;6.50;;;;;;;;;;5154830;27;20411;-76
2023/06/16 07:46:50;;;;;;;8.93;6.50;;;;;;;;;;5118750;27;20043;-77
2023/06/16 07:49:16;;;;;;;9.70;6.57;;;;;;;;;;5135541;27;20043;-76
2023/06/16 07:51:42;;;;;;;9.77;6.00;;;;;;;;;;5136203;27;20421;-76
2023/06/16 07:54:09;;;;;;;6.68;5.65;;;;;;;;;;5154316;27;20448;-77
2023/06/16 07:56:35;;;;;;;8.30;5.82;;;;;;;;;;5154532;27;20394;-77
2023/06/16 07:59:01;;;;;;;9.40;6.47;;;;;;;;;;5135553;27;20402;-77
2023/06/16 08:01:27;;;;;;;8.90;5.53;;;;;;;;;;5135842;27;20038;-77
2023/06/16 08:03:53;;;;;;;5.82;4.07;;;;;;;;;;5153442;27;20412;-77
2023/06/16 08:06:19;;;;;;;5.22;3.85;;;;;;;;;;5118599;27;20118;-76
2023/06/16 08:08:45;;;;;;;6.05;4.00;;;;;;;;;;5154044;27;20062;-76
2023/06/16 08:11:11;;;;;;;4.85;3.35;;;;;;;;;;5154156;27;20043;-77
2023/06/16 08:13:37;;;;;;;5.72;3.28;;;;;;;;;;5135170;27;20213;-76
2023/06/16 08:16:05;;;;;;;5.85;3.50;;;;;;;;;;5135719;27;20536;-77
2023/06/16 08:18:32;;;;;;;5.45;3.10;;;;;;;;;;5154028;27;20038;-77
2023/06/16 08:20:58;;;;;;;4.53;2.72;;;;;;;;;;5154235;27;20473;-76
2023/06/16 08:23:24;;;;;;;6.50;2.83;;;;;;;;;;5135301;27;20045;-77
2023/06/16 08:25:50;;;;;;;5.45;3.05;;;;;;;;;;5154283;27;20035;-77
2023/06/16 08:28:17;;;;;;;3.78;2.47;;;;;;;;;;5117922;27;20046;-77
2023/06/16 08:30:43;;;;;;;5.03;2.97;;;;;;;;;;5117509;27;20096;-76
2023/06/16 08:33:09;;;;;;;5.78;2.70;;;;;;;;;;5135366;27;20039;-77
2023/06/16 08:35:36;;;;;;;5.72;2.90;;;;;;;;;;5135372;27;20039;-77
2023/06/16 08:38:02;;;;;;;5.22;2.33;;;;;;;;;;5154682;27;20383;-76
2023/06/16 08:40:28;;;;;;;4.32;2.50;;;;;;;;;;5153695;27;20514;-76
2023/06/16 08:42:55;;;;;;;6.05;2.50;;;;;;;;;;5153890;27;20156;-77
2023/06/16 08:45:21;;;;;;;5.55;2.47;;;;;;;;;;5153679;27;20058;-76
2023/06/16 08:47:47;;;;;;;5.05;2.80;;;;;;;;;;5154116;27;20526;-77
2023/06/16 08:50:14;;;;;;;5.07;2.90;;;;;;;;;;5139012;27;20054;-77
2023/06/16 08:52:44;;;;;;;3.75;2.60;;;;;;;;;;5139649;27;20396;-76
2023/06/16 08:55:13;;;;;;;7.43;2.83;;;;;;;;;;5139370;27;20046;-76
2023/06/16 08:57:44;;;;;;;6.80;3.03;;;;;;;;;;5139332;27;20046;-77
2023/06/16 09:00:10;;;;;;;6.15;3.00;;;;;;;;;;5157781;27;20047;-77
2023/06/16 09:02:36;;;;;;;5.03;2.55;;;;;;;;;;5139158;27;20491;-76
2023/06/16 09:05:04;;;;;;;8.88;2.83;;;;;;;;;;5138893;27;20050;-77
2023/06/16 09:07:30;;;;;;;5.97;2.90;;;;;;;;;;5157605;27;20059;-77
2023/06/16 09:09:56;;;;;;;4.95;2.60;;;;;;;;;;5139017;27;20038;-77
2023/06/16 09:12:22;;;;;;;5.72;3.30;;;;;;;;;;5157672;27;20483;-77
2023/06/16 09:14:52;;;;;;;4.90;3.15;;;;;;;;;;5137997;27;20049;-77
2023/06/16 09:17:25;;;;;;;6.05;3.42;;;;;;;;;;5137684;27;20043;-77
2023/06/16 09:19:52;;;;;;;9.65;3.55;;;;;;;;;;5139022;27;20508;-77
2023/06/16 09:22:20;;;;;;;7.45;3.25;;;;;;;;;;5157632;27;20077;-78
2023/06/16 09:24:55;;;;;;;9.93;3.35;;;;;;;;;;5157469;27;20083;-77
2023/06/16 09:27:23;;;;;;;9.15;3.53;;;;;;;;;;5139121;27;20371;-77
2023/06/16 09:29:58;;;;;;;7.72;3.40;;;;;;;;;;5156759;27;20088;-75
2023/06/16 09:32:25;;;;;;;6.32;3.10;;;;;;;;;;5157228;27;20042;-75
2023/06/16 09:34:51;;;;;;;4.80;3.00;;;;;;;;;;5157045;27;20042;-76
2023/06/16 09:37:20;;;;;;;6.30;3.03;;;;;;;;;;5139085;27;20038;-75
2023/06/16 09:39:47;;;;;;;7.65;3.30;;;;;;;;;;5138231;27;20050;-76
2023/06/16 09:42:13;;;;;;;5.75;2.78;;;;;;;;;;5157061;27;20042;-76
2023/06/16 09:44:43;;;;;;;6.47;2.97;;;;;;;;;;5156456;27;20052;-76
2023/06/16 09:47:13;;;;;;;7.03;3.55;;;;;;;;;;5156383;27;20046;-78
2023/06/16 09:49:39;;;;;;;6.90;3.30;;;;;;;;;;5155783;27;20550;-77
2023/06/16 09:52:05;;;;;;;6.57;3.10;;;;;;;;;;5155686;27;20080;-77
2023/06/16 09:54:32;;;;;;;6.07;3.20;;;;;;;;;;5156535;27;20050;-77
2023/06/16 09:56:59;;;;;;;4.90;3.05;;;;;;;;;;5137326;27;20471;-77
2023/06/16 09:59:27;;;;;;;5.75;3.03;;;;;;;;;;5153984;27;20062;-77
2023/06/16 10:01:54;;;;;;;7.85;2.60;;;;;;;;;;5156289;27;20046;-77
2023/06/16 10:04:21;;;;;;;7.80;2.80;;;;;;;;;;5138172;27;20038;-77
2023/06/16 10:06:52;;;;;;;5.25;2.88;;;;;;;;;;5156719;27;20039;-77
2023/06/16 10:09:21;;;;;;;5.63;2.83;;;;;;;;;;5156276;27;20066;-77
2023/06/16 10:11:47;;;;;;;6.00;3.05;;;;;;;;;;5137584;27;20072;-77
2023/06/16 10:14:14;;;;;;;4.90;2.60;;;;;;;;;;5156020;27;20084;-77
2023/06/16 10:16:41;;;;;;;5.20;2.50;;;;;;;;;;5137971;27;20129;-77
2023/06/16 10:19:08;;;;;;;4.90;2.58;;;;;;;;;;5137577;27;20117;-77
2023/06/16 10:21:34;;;;;;;5.60;2.67;;;;;;;;;;5156012;27;20038;-77
2023/06/16 10:24:01;;;;;;;5.97;2.55;;;;;;;;;;5155135;27;20402;-77
2023/06/16 10:26:28;;;;;;;5.88;2.65;;;;;;;;;;5137055;27;20054;-77
2023/06/16 10:28:54;;;;;;;6.40;2.53;;;;;;;;;;5155748;27;20035;-77
2023/06/16 10:31:23;;;;;;;5.60;2.50;;;;;;;;;;5155984;27;20038;-77
2023/06/16 10:33:58;;;;;;;5.55;2.53;;;;;;;;;;5156290;27;20079;-77
2023/06/16 10:36:33;;;;;;;4.65;2.35;;;;;;;;;;5137630;27;20082;-77
2023/06/16 10:39:07;;;;;;;4.82;2.60;;;;;;;;;;5155907;27;20043;-77
2023/06/16 10:41:33;;;;;;;6.55;2.17;;;;;;;;;;5154648;27;20121;-77
2023/06/16 10:44:18;;;;;;;4.85;2.70;;;;;;;;;;5137283;27;20049;-77
2023/06/16 10:46:44;;;;;;;3.85;2.40;;;;;;;;;;5137551;27;20043;-77
2023/06/16 10:49:11;;;;;;;5.40;2.17;;;;;;;;;;5136964;27;20098;-77
2023/06/16 10:51:45;;;;;;;4.78;2.40;;;;;;;;;;5155083;27;20057;-78
2023/06/16 10:54:11;;;;;;;4.32;2.60;;;;;;;;;;5155476;27;20057;-76
2023/06/16 10:56:56;;;;;;;5.30;2.40;;;;;;;;;;5137050;27;20042;-77
2023/06/16 10:59:23;;;;;;;6.15;2.38;;;;;;;;;;5136733;27;20046;-76
2023/06/16 11:01:49;;;;;;;9.15;2.53;;;;;;;;;;5155327;27;20392;-76
2023/06/16 11:04:15;;;;;;;6.32;2.70;;;;;;;;;;5155354;27;20037;-77
2023/06/16 11:07:13;;;;;;;6.43;2.20;;;;;;;;;;5155374;27;20053;-76
2023/06/16 11:09:39;;;;;;;4.82;2.33;;;;;;;;;;5098375;27;20050;-77
2023/06/16 11:12:06;;;;;;;6.13;2.35;;;;;;;;;;5135611;27;20506;-77
2023/06/16 11:14:33;;;;;;;4.85;2.10;;;;;;;;;;5154415;27;20551;-76
2023/06/16 11:16:59;;;;;;;6.63;2.33;;;;;;;;;;5136909;27;20038;-77
2023/06/16 11:19:26;;;;;;;4.45;2.60;;;;;;;;;;5154918;27;20035;-77
2023/06/16 11:21:53;;;;;;;4.15;2.38;;;;;;;;;;5155025;27;20085;-77
2023/06/16 11:24:19;;;;;;;3.63;2.10;;;;;;;;;;5136188;27;20051;-77
2023/06/16 11:26:46;;;;;;;3.67;2.10;;;;;;;;;;5155424;27;20035;-77
2023/06/16 11:29:12;;;;;;;5.93;2.50;;;;;;;;;;5154413;27;20471;-77
2023/06/16 11:31:38;;;;;;;5.40;2.08;;;;;;;;;;5136184;27;20062;-78
2023/06/16 11:34:04;;;;;;;5.28;2.10;;;;;;;;;;5154474;27;20099;-77
2023/06/16 11:36:34;;;;;;;3.40;1.98;;;;;;;;;;5136570;27;20479;-78
2023/06/16 11:39:04;;;;;;;2.90;2.00;;;;;;;;;;5154856;27;20047;-77
2023/06/16 11:41:31;;;;;;;3.85;2.10;;;;;;;;;;5155052;27;20079;-77
2023/06/16 11:43:58;;;;;;;3.50;1.90;;;;;;;;;;5136102;27;20053;-76
2023/06/16 11:46:25;;;;;;;5.05;1.98;;;;;;;;;;5136275;27;20080;-77
2023/06/16 11:48:52;;;;;;;4.22;1.90;;;;;;;;;;5154856;27;20061;-77
2023/06/16 11:51:19;;;;;;;4.30;2.10;;;;;;;;;;5154556;27;20175;-77
2023/06/16 11:53:46;;;;;;;2.92;1.85;;;;;;;;;;5153926;27;20047;-77
2023/06/16 11:56:13;;;;;;;6.25;2.13;;;;;;;;;;5154526;27;20463;-77
2023/06/16 11:58:40;;;;;;;3.53;1.90;;;;;;;;;;5153264;27;20043;-77
2023/06/16 12:01:06;;;;;;;4.78;2.05;;;;;;;;;;5154561;27;20039;-76
2023/06/16 12:03:35;;;;;;;7.60;2.10;;;;;;;;;;5154167;27;20436;-77
2023/06/16 12:06:07;;;;;;;5.70;2.08;;;;;;;;;;5154681;27;20051;-76
2023/06/16 12:08:36;;;;;;;5.45;1.80;;;;;;;;;;5154327;27;20054;-77
2023/06/16 12:11:02;;;;;;;5.82;2.08;;;;;;;;;;5135797;27;20042;-78
2023/06/16 12:13:34;;;;;;;3.28;1.92;;;;;;;;;;5154355;27;20053;-78
2023/06/16 12:16:04;;;;;;;4.80;1.92;;;;;;;;;;5154326;27;20527;-78
2023/06/16 12:18:31;;;;;;;6.63;1.83;;;;;;;;;;5154512;27;20087;-78
2023/06/16 12:20:57;;;;;;;5.57;2.10;;;;;;;;;;5153940;27;20118;-78
2023/06/16 12:23:24;;;;;;;5.03;2.10;;;;;;;;;;5153017;27;20394;-78
2023/06/16 12:25:50;;;;;;;5.15;2.17;;;;;;;;;;5152276;27;20452;-77
2023/06/16 12:28:21;;;;;;;6.45;2.10;;;;;;;;;;5153809;27;20046;-78
2023/06/16 12:30:47;;;;;;;4.13;2.00;;;;;;;;;;5153389;27;20146;-79
2023/06/16 12:33:13;;;;;;;3.67;2.00;;;;;;;;;;5135157;27;20046;-77
2023/06/16 12:35:42;;;;;;;3.67;2.10;;;;;;;;;;5153856;27;20069;-76
2023/06/16 12:38:08;;;;;;;4.13;2.15;;;;;;;;;;5135572;27;20042;-77
2023/06/16 12:40:35;;;;;;;4.95;2.30;;;;;;;;;;5118121;27;20047;-77
2023/06/16 12:43:19;;;;;;;4.80;2.15;;;;;;;;;;5135649;27;20042;-77
2023/06/16 12:45:46;;;;;;;4.25;2.17;;;;;;;;;;5154295;27;20039;-77
2023/06/16 12:48:12;;;;;;;6.30;2.30;;;;;;;;;;5153971;27;20034;-77
2023/06/16 12:50:38;;;;;;;4.63;2.25;;;;;;;;;;5135302;27;20068;-77
2023/06/16 12:53:05;;;;;;;4.30;2.38;;;;;;;;;;5118241;27;20051;-77
2023/06/16 12:55:31;;;;;;;4.15;2.20;;;;;;;;;;5153851;27;20395;-78
2023/06/16 12:57:57;;;;;;;3.30;2.00;;;;;;;;;;5153900;27;20039;-77
2023/06/16 13:00:27;;;;;;;6.63;2.22;;;;;;;;;;5153774;27;20127;-77
2023/06/16 13:02:53;;;;;;;5.65;2.42;;;;;;;;;;5152747;27;20060;-77
2023/06/16 13:05:21;;;;;;;4.15;2.30;;;;;;;;;;5135135;27;20039;-78
2023/06/16 13:07:47;;;;;;;6.20;2.40;;;;;;;;;;5118190;27;20519;-78
2023/06/16 13:10:14;;;;;;;3.20;2.30;;;;;;;;;;5153704;27;20038;-77
2023/06/16 13:12:40;;;;;;;5.82;2.45;;;;;;;;;;5134984;27;20152;-78
2023/06/16 13:15:06;;;;;;;6.32;2.13;;;;;;;;;;5153276;27;20046;-78
2023/06/16 13:17:32;;;;;;;4.68;2.30;;;;;;;;;;5153315;27;20107;-78
2023/06/16 13:19:58;;;;;;;6.28;2.35;;;;;;;;;;5152903;27;20413;-78
2023/06/16 13:22:27;;;;;;;4.95;2.35;;;;;;;;;;5153443;27;20125;-78
2023/06/16 13:24:53;;;;;;;5.95;2.38;;;;;;;;;;5153307;27;20050;-78
2023/06/16 13:27:19;;;;;;;3.63;2.20;;;;;;;;;;5135428;27;20046;-78
2023/06/16 13:29:45;;;;;;;3.28;2.00;;;;;;;;;;5153502;27;20043;-78
2023/06/16 13:32:11;;;;;;;5.90;2.35;;;;;;;;;;5118057;27;20079;-78
2023/06/16 13:34:37;;;;;;;5.13;2.42;;;;;;;;;;5154459;27;20095;-78
2023/06/16 13:37:03;;;;;;;4.50;2.20;;;;;;;;;;5138959;27;20570;-78
2023/06/16 13:39:29;;;;;;;7.47;2.30;;;;;;;;;;5157067;27;20083;-78
2023/06/16 13:41:56;;;;;;;8.45;2.40;;;;;;;;;;5138653;27;20054;-78
2023/06/16 13:44:22;;;;;;;9.00;2.50;;;;;;;;;;5138764;27;20046;-78
2023/06/16 13:46:48;;;;;;;4.90;2.20;;;;;;;;;;5157342;27;20129;-78
2023/06/16 13:49:14;;;;;;;7.25;2.47;;;;;;;;;;5157188;27;20051;-78
2023/06/16 13:51:43;;;;;;;5.65;2.50;;;;;;;;;;5155621;27;20046;-78
2023/06/16 13:54:11;;;;;;;5.05;2.50;;;;;;;;;;5156624;27;20042;-78
2023/06/16 13:56:37;;;;;;;6.10;2.50;;;;;;;;;;5138566;27;20546;-78
2023/06/16 13:59:03;;;;;;;8.30;2.47;;;;;;;;;;5156919;27;20035;-78
2023/06/16 14:01:29;;;;;;;6.13;2.33;;;;;;;;;;5157152;27;20058;-78
2023/06/16 14:03:55;;;;;;;4.80;2.63;;;;;;;;;;5157005;27;20043;-78
2023/06/16 14:06:21;;;;;;;5.10;2.63;;;;;;;;;;5156974;27;20039;-78
2023/06/16 14:08:49;;;;;;;4.55;2.50;;;;;;;;;;5156509;27;20131;-78
2023/06/16 14:11:15;;;;;;;5.63;2.60;;;;;;;;;;5156595;27;20038;-78
2023/06/16 14:13:44;;;;;;;7.18;2.55;;;;;;;;;;5156483;27;20042;-77
2023/06/16 14:16:10;;;;;;;5.43;2.65;;;;;;;;;;5138186;27;20046;-76
2023/06/16 14:18:36;;;;;;;5.70;2.40;;;;;;;;;;5137050;27;20053;-78
2023/06/16 14:21:02;;;;;;;4.35;2.67;;;;;;;;;;5156226;27;20444;-77
2023/06/16 14:23:28;;;;;;;4.22;2.60;;;;;;;;;;5156314;27;20047;-78
2023/06/16 14:25:54;;;;;;;4.38;2.20;;;;;;;;;;5156659;27;20399;-78
2023/06/16 14:28:20;;;;;;;5.07;2.30;;;;;;;;;;5137899;27;20085;-78
2023/06/16 14:30:46;;;;;;;3.40;2.40;;;;;;;;;;5155987;27;20058;-78
2023/06/16 14:33:12;;;;;;;5.47;2.85;;;;;;;;;;5156372;27;20042;-78